createdAt,value
2018-04-29T00:00:57.628Z,94706
2018-04-29T00:03:25.770Z,94702
2018-04-29T00:05:53.855Z,94706
2018-04-29T00:08:21.984Z,94707
2018-04-29T00:10:50.151Z,94701
2018-04-29T00:13:18.247Z,94701
2018-04-29T00:15:47.162Z,94702
2018-04-29T00:18:15.346Z,94706
2018-04-29T00:20:43.458Z,94710
2018-04-29T00:23:11.570Z,94714
2018-04-29T00:25:39.704Z,94711
2018-04-29T00:28:07.794Z,94705
2018-04-29T00:30:35.898Z,94707
2018-04-29T00:33:04.047Z,94713
2018-04-29T00:35:32.905Z,94707
2018-04-29T00:38:01.018Z,94715
2018-04-29T00:40:29.115Z,94702
2018-04-29T00:42:57.261Z,94697
2018-04-29T00:45:25.370Z,94700
2018-04-29T00:47:53.467Z,94704
2018-04-29T00:50:21.565Z,94701
2018-04-29T00:52:50.455Z,94703
2018-04-29T00:55:19.713Z,94697
2018-04-29T00:57:47.851Z,94694
2018-04-29T01:00:16.948Z,94685
2018-04-29T01:02:45.036Z,94691
2018-04-29T01:05:13.255Z,94685
2018-04-29T01:07:41.360Z,94707
2018-04-29T01:10:09.555Z,94697
2018-04-29T01:12:37.690Z,94710
2018-04-29T01:15:06.586Z,94707
2018-04-29T01:17:34.796Z,94702
2018-04-29T01:20:03.053Z,94704
2018-04-29T01:22:31.288Z,94712
2018-04-29T01:24:59.489Z,94711
2018-04-29T01:27:28.375Z,94711
2018-04-29T01:29:56.477Z,94712
2018-04-29T01:32:24.594Z,94706
2018-04-29T01:34:52.688Z,94707
2018-04-29T01:37:20.822Z,94705
2018-04-29T01:39:48.990Z,94700
2018-04-29T01:42:17.208Z,94710
2018-04-29T01:44:45.320Z,94712
2018-04-29T01:47:13.438Z,94721
2018-04-29T01:49:41.564Z,94713
2018-04-29T01:52:09.660Z,94724
2018-04-29T01:54:37.772Z,94722
2018-04-29T01:57:05.870Z,94733
2018-04-29T01:59:34.043Z,94740
2018-04-29T02:02:02.251Z,94728
2018-04-29T02:04:30.483Z,94744
2018-04-29T02:06:58.707Z,94741
2018-04-29T02:09:26.961Z,94757
2018-04-29T02:11:55.228Z,94759
2018-04-29T02:14:23.493Z,94761
2018-04-29T02:16:51.762Z,94764
2018-04-29T02:19:19.966Z,94772
2018-04-29T02:21:48.154Z,94773
2018-04-29T02:24:16.263Z,94767
2018-04-29T02:26:44.372Z,94786
2018-04-29T02:29:13.201Z,94781
2018-04-29T02:31:41.294Z,94785
2018-04-29T02:34:09.403Z,94785
2018-04-29T02:36:37.495Z,94797
2018-04-29T02:39:05.639Z,94787
2018-04-29T02:41:33.745Z,94790
2018-04-29T02:44:01.860Z,94789
2018-04-29T02:46:30.727Z,94784
2018-04-29T02:48:58.834Z,94797
2018-04-29T02:51:28.253Z,94791
2018-04-29T02:53:56.422Z,94783
2018-04-29T02:56:24.581Z,94781
2018-04-29T02:58:52.696Z,94777
2018-04-29T03:01:20.815Z,94774
2018-04-29T03:03:49.526Z,94783
2018-04-29T03:06:17.665Z,94776
2018-04-29T03:08:45.884Z,94779
2018-04-29T03:11:14.142Z,94777
2018-04-29T03:13:42.426Z,94788
2018-04-29T03:16:10.636Z,94786
2018-04-29T03:18:38.788Z,94793
2018-04-29T03:21:06.892Z,94795
2018-04-29T03:23:35.016Z,94798
2018-04-29T03:26:03.135Z,94788
2018-04-29T03:28:31.242Z,94793
2018-04-29T03:31:00.100Z,94797
2018-04-29T03:33:28.210Z,94786
2018-04-29T03:35:57.097Z,94791
2018-04-29T03:38:25.197Z,94792
2018-04-29T03:40:53.312Z,94805
2018-04-29T03:43:21.416Z,94805
2018-04-29T03:45:49.540Z,94803
2018-04-29T03:48:17.640Z,94813
2018-04-29T03:50:45.754Z,94806
2018-04-29T03:53:13.857Z,94805
2018-04-29T03:55:41.959Z,94812
2018-04-29T03:58:27.703Z,94815
2018-04-29T04:01:13.500Z,94817
2018-04-29T04:03:54.316Z,94824
2018-04-29T04:06:22.417Z,94827
2018-04-29T04:08:50.528Z,94837
2018-04-29T04:11:18.672Z,94838
2018-04-29T04:13:46.779Z,94836
2018-04-29T04:16:14.865Z,94837
2018-04-29T04:18:42.947Z,94847
2018-04-29T04:21:11.039Z,94840
2018-04-29T04:23:39.169Z,94842
2018-04-29T04:26:07.351Z,94835
2018-04-29T04:28:35.577Z,94833
2018-04-29T04:31:03.961Z,94836
2018-04-29T04:33:32.117Z,94843
2018-04-29T04:36:00.380Z,94848
2018-04-29T04:38:28.519Z,94858
2018-04-29T04:40:56.668Z,94848
2018-04-29T04:43:24.770Z,94856
2018-04-29T04:45:53.423Z,94861
2018-04-29T04:48:21.602Z,94856
2018-04-29T04:50:49.755Z,94859
2018-04-29T04:53:17.859Z,94856
2018-04-29T04:55:45.959Z,94860
2018-04-29T04:58:15.606Z,94856
2018-04-29T05:00:43.653Z,94863
2018-04-29T05:03:11.772Z,94861
2018-04-29T05:05:39.881Z,94863
2018-04-29T05:08:08.041Z,94862
2018-04-29T05:10:36.179Z,94861
2018-04-29T05:13:04.282Z,94872
2018-04-29T05:15:32.476Z,94870
2018-04-29T05:18:00.575Z,94870
2018-04-29T05:20:28.682Z,94875
2018-04-29T05:22:56.849Z,94881
2018-04-29T05:25:24.964Z,94869
2018-04-29T05:27:53.064Z,94873
2018-04-29T05:30:21.156Z,94876
2018-04-29T05:32:49.264Z,94874
2018-04-29T05:35:17.468Z,94877
2018-04-29T05:37:45.563Z,94867
2018-04-29T05:40:13.683Z,94859
2018-04-29T05:42:41.813Z,94866
2018-04-29T05:45:09.906Z,94855
2018-04-29T05:47:38.003Z,94851
2018-04-29T05:50:06.119Z,94847
2018-04-29T05:52:34.211Z,94847
2018-04-29T05:55:02.668Z,94848
2018-04-29T05:57:30.760Z,94850
2018-04-29T05:59:59.996Z,94846
2018-04-29T06:02:28.502Z,94851
2018-04-29T06:04:56.614Z,94850
2018-04-29T06:07:24.737Z,94841
2018-04-29T06:09:52.860Z,94841
2018-04-29T06:12:21.421Z,94829
2018-04-29T06:14:49.561Z,94833
2018-04-29T06:17:17.696Z,94826
2018-04-29T06:19:46.831Z,94825
2018-04-29T06:22:14.995Z,94824
2018-04-29T06:24:43.221Z,94821
2018-04-29T06:27:11.351Z,94824
2018-04-29T06:29:39.481Z,94824
2018-04-29T06:32:07.613Z,94820
2018-04-29T06:34:35.704Z,94817
2018-04-29T06:37:03.843Z,94820
2018-04-29T06:39:31.955Z,94819
2018-04-29T06:42:00.073Z,94819
2018-04-29T06:44:28.257Z,94812
2018-04-29T06:46:56.531Z,94813
2018-04-29T06:49:24.784Z,94810
2018-04-29T06:51:52.949Z,94809
2018-04-29T06:54:21.199Z,94805
2018-04-29T06:56:49.299Z,94803
2018-04-29T06:59:17.428Z,94804
2018-04-29T07:01:45.806Z,94804
2018-04-29T07:04:14.675Z,94801
2018-04-29T07:06:42.808Z,94804
2018-04-29T07:09:10.932Z,94796
2018-04-29T07:11:39.059Z,94793
2018-04-29T07:14:07.272Z,94789
2018-04-29T07:16:35.485Z,94794
2018-04-29T07:19:03.727Z,94785
2018-04-29T07:21:31.900Z,94779
2018-04-29T07:24:00.034Z,94775
2018-04-29T07:26:28.155Z,94769
2018-04-29T07:28:56.275Z,94755
2018-04-29T07:31:24.383Z,94755
2018-04-29T07:33:52.520Z,94760
2018-04-29T07:36:21.370Z,94758
2018-04-29T07:38:49.499Z,94770
2018-04-29T07:41:17.646Z,94767
2018-04-29T07:43:45.750Z,94763
2018-04-29T07:46:13.855Z,94759
2018-04-29T07:48:41.958Z,94757
2018-04-29T07:51:10.095Z,94756
2018-04-29T07:53:38.258Z,94760
2018-04-29T07:56:06.457Z,94763
2018-04-29T07:58:35.344Z,94763
2018-04-29T08:01:04.204Z,94745
2018-04-29T08:03:32.320Z,94746
2018-04-29T08:06:00.528Z,94734
2018-04-29T08:08:28.640Z,94735
2018-04-29T08:10:56.824Z,94748
2018-04-29T08:13:24.950Z,94740
2018-04-29T08:15:53.056Z,94728
2018-04-29T08:18:21.195Z,94725
2018-04-29T08:20:49.307Z,94727
2018-04-29T08:23:17.441Z,94716
2018-04-29T08:25:45.582Z,94708
2018-04-29T08:28:13.687Z,94710
2018-04-29T08:30:41.791Z,94717
2018-04-29T08:33:09.992Z,94715
2018-04-29T08:35:38.099Z,94719
2018-04-29T08:38:06.215Z,94717
2018-04-29T08:40:34.333Z,94708
2018-04-29T08:43:02.465Z,94710
2018-04-29T08:45:31.468Z,94707
2018-04-29T08:47:59.630Z,94702
2018-04-29T08:50:27.730Z,94693
2018-04-29T08:52:55.896Z,94694
2018-04-29T08:55:24.019Z,94691
2018-04-29T08:57:52.110Z,94689
2018-04-29T09:00:20.208Z,94692
2018-04-29T09:02:48.309Z,94697
2018-04-29T09:05:16.441Z,94699
2018-04-29T09:07:44.530Z,94696
2018-04-29T09:10:12.742Z,94692
2018-04-29T09:12:41.011Z,94692
2018-04-29T09:15:09.495Z,94684
2018-04-29T09:17:37.674Z,94689
2018-04-29T09:20:05.821Z,94685
2018-04-29T09:22:33.942Z,94680
2018-04-29T09:25:02.034Z,94677
2018-04-29T09:27:30.138Z,94677
2018-04-29T09:29:58.231Z,94672
2018-04-29T09:32:26.357Z,94667
2018-04-29T09:34:54.455Z,94659
2018-04-29T09:37:22.673Z,94658
2018-04-29T09:39:50.859Z,94652
2018-04-29T09:42:19.095Z,94656
2018-04-29T09:44:55.669Z,94658
2018-04-29T09:47:23.795Z,94652
2018-04-29T09:49:52.688Z,94658
2018-04-29T09:52:20.961Z,94650
2018-04-29T09:54:49.112Z,94651
2018-04-29T09:57:17.367Z,94652
2018-04-29T09:59:45.958Z,94645
2018-04-29T10:02:14.074Z,94648
2018-04-29T10:04:42.171Z,94655
2018-04-29T10:07:10.331Z,94657
2018-04-29T10:09:38.473Z,94646
2018-04-29T10:12:06.565Z,94655
2018-04-29T10:14:34.696Z,94642
2018-04-29T10:17:02.872Z,94640
2018-04-29T10:19:30.971Z,94635
2018-04-29T10:21:59.871Z,94637
2018-04-29T10:24:28.135Z,94644
2018-04-29T10:26:56.348Z,94643
2018-04-29T10:29:24.567Z,94637
2018-04-29T10:31:52.798Z,94641
2018-04-29T10:34:20.893Z,94641
2018-04-29T10:36:52.826Z,94631
2018-04-29T10:39:21.912Z,94626
2018-04-29T10:41:50.005Z,94620
2018-04-29T10:44:18.108Z,94610
2018-04-29T10:46:46.209Z,94616
2018-04-29T10:49:14.312Z,94605
2018-04-29T10:51:42.430Z,94604
2018-04-29T10:54:10.526Z,94597
2018-04-29T10:56:39.479Z,94596
2018-04-29T10:59:07.612Z,94598
2018-04-29T11:01:35.740Z,94595
2018-04-29T11:04:03.855Z,94595
2018-04-29T11:06:31.989Z,94577
2018-04-29T11:09:00.105Z,94576
2018-04-29T11:11:28.215Z,94574
2018-04-29T11:13:56.341Z,94567
2018-04-29T11:16:24.444Z,94564
2018-04-29T11:18:52.547Z,94558
2018-04-29T11:21:20.664Z,94558
2018-04-29T11:23:48.759Z,94556
2018-04-29T11:26:16.867Z,94551
2018-04-29T11:28:44.957Z,94553
2018-04-29T11:31:13.083Z,94551
2018-04-29T11:33:41.184Z,94552
2018-04-29T11:36:09.313Z,94547
2018-04-29T11:38:37.491Z,94542
2018-04-29T11:41:05.619Z,94539
2018-04-29T11:43:33.731Z,94536
2018-04-29T11:46:01.907Z,94536
2018-04-29T11:48:30.066Z,94529
2018-04-29T11:50:58.186Z,94523
2018-04-29T11:53:26.310Z,94527
2018-04-29T11:55:54.412Z,94527
2018-04-29T11:58:23.456Z,94513
2018-04-29T12:00:51.637Z,94517
2018-04-29T12:03:19.754Z,94512
2018-04-29T12:05:47.866Z,94502
2018-04-29T12:08:15.974Z,94503
2018-04-29T12:10:48.253Z,94500
2018-04-29T12:13:16.363Z,94495
2018-04-29T12:15:44.472Z,94492
2018-04-29T12:18:12.564Z,94490
2018-04-29T12:20:40.695Z,94485
2018-04-29T12:23:08.926Z,94482
2018-04-29T12:25:37.080Z,94478
2018-04-29T12:28:05.295Z,94469
2018-04-29T12:30:33.404Z,94464
2018-04-29T12:33:01.574Z,94469
2018-04-29T12:35:30.455Z,94466
2018-04-29T12:37:58.578Z,94463
2018-04-29T12:40:26.666Z,94465
2018-04-29T12:42:55.180Z,94454
2018-04-29T12:45:24.037Z,94461
2018-04-29T12:47:52.157Z,94456
2018-04-29T12:50:21.495Z,94458
2018-04-29T12:52:49.729Z,94449
2018-04-29T12:55:18.629Z,94440
2018-04-29T12:57:46.719Z,94442
2018-04-29T13:00:14.890Z,94444
2018-04-29T13:02:42.964Z,94429
2018-04-29T13:05:11.093Z,94423
2018-04-29T13:07:39.216Z,94423
2018-04-29T13:10:07.339Z,94425
2018-04-29T13:12:35.517Z,94412
2018-04-29T13:15:03.609Z,94409
2018-04-29T13:17:31.727Z,94404
2018-04-29T13:19:59.828Z,94401
2018-04-29T13:22:27.973Z,94393
2018-04-29T13:24:56.075Z,94395
2018-04-29T13:27:24.277Z,94396
2018-04-29T13:29:52.487Z,94389
2018-04-29T13:32:20.628Z,94382
2018-04-29T13:34:48.771Z,94373
2018-04-29T13:37:16.907Z,94373
2018-04-29T13:39:45.547Z,94379
2018-04-29T13:42:13.700Z,94375
2018-04-29T13:44:41.940Z,94361
2018-04-29T13:47:10.047Z,94364
2018-04-29T13:49:38.177Z,94350
2018-04-29T13:52:06.296Z,94351
2018-04-29T13:54:34.506Z,94344
2018-04-29T13:57:02.615Z,94338
2018-04-29T13:59:30.728Z,94332
2018-04-29T14:01:58.839Z,94332
2018-04-29T14:04:26.933Z,94325
2018-04-29T14:06:55.234Z,94318
2018-04-29T14:09:23.418Z,94309
2018-04-29T14:11:51.526Z,94309
2018-04-29T14:14:19.633Z,94312
2018-04-29T14:16:47.759Z,94305
2018-04-29T14:19:15.874Z,94295
2018-04-29T14:21:44.043Z,94291
2018-04-29T14:24:12.154Z,94289
2018-04-29T14:26:40.284Z,94284
2018-04-29T14:29:08.447Z,94279
2018-04-29T14:31:36.552Z,94278
2018-04-29T14:34:04.706Z,94276
2018-04-29T14:36:32.921Z,94275
2018-04-29T14:39:00.948Z,94258
2018-04-29T14:41:29.106Z,94265
2018-04-29T14:43:57.235Z,94253
2018-04-29T14:46:25.544Z,94262
2018-04-29T14:48:53.850Z,94249
2018-04-29T14:51:21.959Z,94245
2018-04-29T14:53:51.179Z,94241
2018-04-29T14:56:19.696Z,94253
2018-04-29T14:58:47.811Z,94250
2018-04-29T15:01:15.965Z,94241
2018-04-29T15:03:44.004Z,94236
2018-04-29T15:06:12.151Z,94244
2018-04-29T15:08:40.393Z,94238
2018-04-29T15:11:08.590Z,94231
2018-04-29T15:13:36.805Z,94238
2018-04-29T15:16:06.674Z,94232
2018-04-29T15:18:52.361Z,94227
2018-04-29T15:21:20.476Z,94220
2018-04-29T15:23:48.667Z,94215
2018-04-29T15:26:16.758Z,94224
2018-04-29T15:28:44.961Z,94220
2018-04-29T15:31:13.125Z,94218
2018-04-29T15:33:41.297Z,94212
2018-04-29T15:36:10.173Z,94209
2018-04-29T15:38:38.332Z,94219
2018-04-29T15:41:06.438Z,94216
2018-04-29T15:43:34.535Z,94212
2018-04-29T15:46:02.649Z,94195
2018-04-29T15:48:30.784Z,94207
2018-04-29T15:50:58.906Z,94199
2018-04-29T15:53:27.004Z,94199
2018-04-29T15:55:55.100Z,94189
2018-04-29T15:58:23.217Z,94187
2018-04-29T16:00:51.370Z,94189
2018-04-29T16:03:19.776Z,94189
2018-04-29T16:05:47.880Z,94183
2018-04-29T16:08:15.999Z,94185
2018-04-29T16:10:44.100Z,94183
2018-04-29T16:13:12.314Z,94203
2018-04-29T16:15:40.422Z,94181
2018-04-29T16:18:08.546Z,94190
2018-04-29T16:20:37.119Z,94183
2018-04-29T16:23:05.366Z,94178
2018-04-29T16:25:33.618Z,94178
2018-04-29T16:28:01.833Z,94178
2018-04-29T16:30:30.064Z,94159
2018-04-29T16:32:58.670Z,94161
2018-04-29T16:35:26.806Z,94156
2018-04-29T16:37:55.005Z,94164
2018-04-29T16:40:23.148Z,94167
2018-04-29T16:42:51.323Z,94164
2018-04-29T16:45:19.418Z,94161
2018-04-29T16:47:47.615Z,94168
2018-04-29T16:50:15.868Z,94156
2018-04-29T16:52:44.287Z,94156
2018-04-29T16:55:12.407Z,94153
2018-04-29T16:57:41.399Z,94140
2018-04-29T17:00:09.505Z,94155
2018-04-29T17:02:38.386Z,94146
2018-04-29T17:05:06.493Z,94138
2018-04-29T17:07:34.656Z,94146
2018-04-29T17:10:02.814Z,94132
2018-04-29T17:12:30.958Z,94125
2018-04-29T17:14:59.875Z,94122
2018-04-29T17:17:27.992Z,94126
2018-04-29T17:19:56.173Z,94113
2018-04-29T17:22:24.347Z,94120
2018-04-29T17:24:52.590Z,94116
2018-04-29T17:27:21.442Z,94130
2018-04-29T17:29:50.049Z,94130
2018-04-29T17:32:18.240Z,94128
2018-04-29T17:34:46.472Z,94127
2018-04-29T17:37:15.442Z,94133
2018-04-29T17:39:43.587Z,94125
2018-04-29T17:42:11.797Z,94117
2018-04-29T17:44:39.920Z,94119
2018-04-29T17:47:08.030Z,94110
2018-04-29T17:49:36.119Z,94123
2018-04-29T17:52:04.251Z,94115
2018-04-29T17:54:32.366Z,94110
2018-04-29T17:57:00.936Z,94111
2018-04-29T17:59:29.063Z,94113
2018-04-29T18:01:57.849Z,94112
2018-04-29T18:04:25.975Z,94110
2018-04-29T18:06:54.093Z,94114
2018-04-29T18:09:22.209Z,94112
2018-04-29T18:11:50.304Z,94116
2018-04-29T18:14:18.472Z,94108
2018-04-29T18:16:46.714Z,94111
2018-04-29T18:19:15.604Z,94109
2018-04-29T18:21:44.218Z,94114
2018-04-29T18:24:12.384Z,94109
2018-04-29T18:26:40.678Z,94109
2018-04-29T18:29:08.883Z,94107
2018-04-29T18:31:37.603Z,94101
2018-04-29T18:34:06.475Z,94105
2018-04-29T18:36:34.614Z,94096
2018-04-29T18:39:02.743Z,94103
2018-04-29T18:41:30.912Z,94103
2018-04-29T18:44:00.716Z,94098
2018-04-29T18:46:28.821Z,94098
2018-04-29T18:48:56.923Z,94103
2018-04-29T18:51:25.151Z,94100
2018-04-29T18:53:54.323Z,94101
2018-04-29T18:56:23.015Z,94104
2018-04-29T18:58:51.159Z,94097
2018-04-29T19:01:19.267Z,94106
2018-04-29T19:03:47.396Z,94108
2018-04-29T19:06:15.565Z,94107
2018-04-29T19:08:43.788Z,94101
2018-04-29T19:11:12.676Z,94104
2018-04-29T19:13:42.553Z,94105
2018-04-29T19:16:10.657Z,94098
2018-04-29T19:18:38.774Z,94111
2018-04-29T19:21:06.982Z,94107
2018-04-29T19:23:35.511Z,94112
2018-04-29T19:26:03.627Z,94102
2018-04-29T19:28:31.751Z,94110
2018-04-29T19:30:59.909Z,94110
2018-04-29T19:33:28.819Z,94110
2018-04-29T19:35:56.942Z,94105
2018-04-29T19:38:25.080Z,94105
2018-04-29T19:40:53.181Z,94092
2018-04-29T19:43:21.296Z,94095
2018-04-29T19:45:50.197Z,94098
2018-04-29T19:48:18.328Z,94099
2018-04-29T19:50:46.468Z,94096
2018-04-29T19:53:14.612Z,94102
2018-04-29T19:55:42.771Z,94113
2018-04-29T19:58:10.900Z,94110
2018-04-29T20:00:39.019Z,94110
2018-04-29T20:03:07.909Z,94108
2018-04-29T20:05:36.813Z,94103
2018-04-29T20:08:04.943Z,94102
2018-04-29T20:10:33.044Z,94107
2018-04-29T20:13:01.165Z,94097
2018-04-29T20:15:29.375Z,94095
2018-04-29T20:17:57.621Z,94093
2018-04-29T20:20:26.256Z,94091
2018-04-29T20:22:55.193Z,94085
2018-04-29T20:25:23.309Z,94078
2018-04-29T20:27:51.407Z,94067
2018-04-29T20:30:19.531Z,94065
2018-04-29T20:32:48.473Z,94066
2018-04-29T20:35:16.571Z,94061
2018-04-29T20:37:44.703Z,94060
2018-04-29T20:40:12.835Z,94062
2018-04-29T20:42:41.058Z,94064
2018-04-29T20:45:09.251Z,94050
2018-04-29T20:47:37.402Z,94042
2018-04-29T20:50:05.619Z,94037
2018-04-29T20:52:33.751Z,94024
2018-04-29T20:55:01.900Z,94019
2018-04-29T20:57:30.033Z,94017
2018-04-29T20:59:58.133Z,94012
2018-04-29T21:02:26.250Z,93999
2018-04-29T21:04:54.374Z,94008
2018-04-29T21:07:22.470Z,94015
2018-04-29T21:09:50.632Z,94004
2018-04-29T21:12:18.756Z,93999
2018-04-29T21:14:46.953Z,94011
2018-04-29T21:17:15.094Z,94014
2018-04-29T21:19:43.220Z,94013
2018-04-29T21:22:11.326Z,94011
2018-04-29T21:24:39.458Z,94004
2018-04-29T21:27:07.594Z,93992
2018-04-29T21:29:35.869Z,93987
2018-04-29T21:32:03.997Z,93987
2018-04-29T21:34:32.102Z,93990
2018-04-29T21:37:00.211Z,93987
2018-04-29T21:39:28.321Z,93983
2018-04-29T21:41:56.444Z,93977
2018-04-29T21:44:24.547Z,93975
2018-04-29T21:46:52.644Z,93978
2018-04-29T21:49:21.517Z,93978
2018-04-29T21:51:49.631Z,93968
2018-04-29T21:54:17.759Z,93981
2018-04-29T21:56:45.876Z,93973
2018-04-29T21:59:14.009Z,93974
2018-04-29T22:01:42.125Z,93973
2018-04-29T22:04:10.403Z,93965
2018-04-29T22:06:38.544Z,93959
2018-04-29T22:09:06.803Z,93948
2018-04-29T22:11:35.020Z,93957
2018-04-29T22:14:03.274Z,93956
2018-04-29T22:16:32.139Z,93953
2018-04-29T22:19:00.252Z,93955
2018-04-29T22:21:28.368Z,93964
2018-04-29T22:23:56.466Z,93953
2018-04-29T22:26:24.638Z,93949
2018-04-29T22:28:52.744Z,93943
2018-04-29T22:31:20.835Z,93942
2018-04-29T22:33:48.937Z,93936
2018-04-29T22:36:17.060Z,93938
2018-04-29T22:38:45.155Z,93935
2018-04-29T22:41:13.261Z,93935
2018-04-29T22:43:41.379Z,93933
2018-04-29T22:46:09.497Z,93933
2018-04-29T22:48:37.725Z,93931
2018-04-29T22:51:05.829Z,93925
2018-04-29T22:53:33.954Z,93927
2018-04-29T22:56:02.905Z,93916
2018-04-29T22:58:31.047Z,93924
2018-04-29T23:00:59.170Z,93924
2018-04-29T23:03:27.288Z,93924
2018-04-29T23:05:55.455Z,93921
2018-04-29T23:08:23.609Z,93929
2018-04-29T23:10:51.717Z,93930
2018-04-29T23:13:20.446Z,93927
2018-04-29T23:15:48.552Z,93921
2018-04-29T23:18:16.644Z,93900
2018-04-29T23:20:44.783Z,93895
2018-04-29T23:23:12.883Z,93907
2018-04-29T23:25:40.981Z,93891
2018-04-29T23:28:09.124Z,93892
2018-04-29T23:30:37.223Z,93888
2018-04-29T23:33:05.336Z,93889
2018-04-29T23:35:33.502Z,93887
2018-04-29T23:38:01.750Z,93886
2018-04-29T23:40:29.866Z,93880
2018-04-29T23:42:58.762Z,93876
2018-04-29T23:45:27.644Z,93868
2018-04-29T23:47:55.776Z,93875
2018-04-29T23:50:23.883Z,93865
2018-04-29T23:52:52.024Z,93869
2018-04-29T23:55:20.191Z,93866
2018-04-29T23:57:48.299Z,93871
